RJOSRJGG

Guest
Details From RJOS - TOKUSHIMA
To RJGG - CHUBU CENTRAIR INTL
Flight Number -
Tags generated
Created
Modified
Stats Distance 117 nm / 217 km
Max Altitude 11,700 ft / 3,566 m
Waypoints 3
Social Downloads 0
Likes 0
Share VATSIM

Download

Looking for another format? Having issues loading an existing format? Contact us
Advertisement - Login to hide

Notes

Basic altitude profile: - Ascent Rate: 2500ft/min - Ascent Speed: 250kts - Cruise Altitude: 35000ft - Cruise Speed: 420kts - Descent Rate: 1500ft/min - Descent Speed: 250kts Options: - Use NATs: yes - Use PACOTS: yes - Use low airways: yes - Use high airways: yes

Route

RJOS NARAH RJGG

ID Type Via Altitude Latitude Longitude Leg Dist Tot Dist Heading (true) Name
O RJOS APT - 0 ft / 0 m 34.13281˚ 134.60664˚ - 0 nm - TOKUSHIMA
NARAH FIX - 11,700 ft / 3,566 m 34.49967˚ 135.68412˚ 57 nm 57 nm 67° / 68° -
O RJGG APT - 0 ft / 0 m 34.85841˚ 136.80541˚ 59 nm 117 nm 68° / 69° CHUBU CENTRAIR INTL

Altitude Profile

Advertisement - Login to hide

RJOS

Details ICAO RJOS (TKS)
Name TOKUSHIMA
Region Japan
Timezone Asia/Tokyo (UTC+9.0)
Stats Elevation 26 ft / 8 m (AMSL)
Location 34.132809° 134.606639°
Runways 1
Magnetic Variation 7.527° W

METAR

RJOS 132147Z 31012KT 9999 FEW020 SCT030 04/M02 Q1025 RMK 1CU020 4CU030 A3030

Decode

TAF

Not found

Departure Runways

ID Width Length Bearing (true) Bearing (mag) Surface Threshold Offset Overrun Length
11 150 ft / 46 m 6,506 ft / 1,983 m 102.50° 110.03° Asphalt 0 ft / 0 m 231 ft / 70 m
29 150 ft / 46 m 6,506 ft / 1,983 m 282.51° 290.04° Asphalt 0 ft / 0 m 1,670 ft / 509 m

RJGG

Details ICAO RJGG (NGO)
Name CHUBU CENTRAIR INTL
Region Japan
Timezone Asia/Tokyo (UTC+9.0)
Stats Elevation 15 ft / 5 m (AMSL)
Location 34.858414° 136.805408°
Runways 1
Magnetic Variation 7.581° W

METAR

RJGG 132300Z 35016KT 9999 FEW020 05/M01 Q1024 NOSIG

Decode

TAF

TAF RJGG 131709Z 1318/1500 33022KT 9999 FEW030 BECMG 1421/1500 34010KT

Decode

Destination Runways

ID Width Length Bearing (true) Bearing (mag) Surface Threshold Offset Overrun Length
18 197 ft / 60 m 11,511 ft / 3,509 m 168.81° 176.39° Asphalt 0 ft / 0 m 197 ft / 60 m
36 197 ft / 60 m 11,511 ft / 3,509 m 348.81° 356.39° Asphalt 0 ft / 0 m 197 ft / 60 m

Approach Navaids

Runway Type Ident Frequency Range Bearing (true) Bearing (mag) Slope Elevation
18 Localiser ICY 109.70 MHz 25 nm / 46 km 168.79° 176.37° - 12 ft / 4 m (AMSL)
18 Glidescope ICY 109.70 MHz 25 nm / 46 km 176.00° 183.58° 3.00° 12 ft / 4 m (AMSL)
36 Localiser ICX 111.90 MHz 25 nm / 46 km 348.79° 356.37° - 12 ft / 4 m (AMSL)
36 Glidescope ICX 111.90 MHz 25 nm / 46 km 356.00° 3.58° 3.00° 12 ft / 4 m (AMSL)